<?xml version="1.0" encoding="utf-8"?>
<gpx xmlns:xsi="http://www.w3.org/2001/XMLSchema-instance" xmlns:xsd="http://www.w3.org/2001/XMLSchema" version="1.1" creator="Shapelink.com" xmlns="http://www.topografix.com/GPX/1/1" xmlns:gpxtpx="http://www.garmin.com/xmlschemas/TrackPointExtension/v1">
  <metadata>
    <name>Löpning 5.01 km, 2018-07-20</name>
    <desc></desc>
    <author><name>Stefan Östlund</name></author> 
    <time>2018-07-20T09:25:01Z</time>
  </metadata>
  <trk>
    <name>Löpning 5.01 km, 2018-07-20</name>
    <trkseg>
      <trkpt lat="62.318256638217" lon="17.442855269912">
        <ele>11</ele>
        <time>2018-07-20T09:25:01Z</time>
      </trkpt>
      <trkpt lat="62.318252614905" lon="17.442822161407">
        <ele>12.6</ele>
        <time>2018-07-20T09:25:02Z</time>
      </trkpt>
      <trkpt lat="62.318265355393" lon="17.442524184862">
        <ele>13</ele>
        <time>2018-07-20T09:25:08Z</time>
      </trkpt>
      <trkpt lat="62.318297709527" lon="17.442344644564">
        <ele>13.8</ele>
        <time>2018-07-20T09:25:12Z</time>
      </trkpt>
      <trkpt lat="62.318343893796" lon="17.442081955818">
        <ele>14.6</ele>
        <time>2018-07-20T09:25:18Z</time>
      </trkpt>
      <trkpt lat="62.318369710048" lon="17.441904343357">
        <ele>14.8</ele>
        <time>2018-07-20T09:25:22Z</time>
      </trkpt>
      <trkpt lat="62.318398208508" lon="17.441641319335">
        <ele>16</ele>
        <time>2018-07-20T09:25:28Z</time>
      </trkpt>
      <trkpt lat="62.31841061372" lon="17.441366057739">
        <ele>16.6</ele>
        <time>2018-07-20T09:25:34Z</time>
      </trkpt>
      <trkpt lat="62.318406758046" lon="17.441088113935">
        <ele>17.2</ele>
        <time>2018-07-20T09:25:40Z</time>
      </trkpt>
      <trkpt lat="62.318396699766" lon="17.4408647363">
        <ele>18.4</ele>
        <time>2018-07-20T09:25:45Z</time>
      </trkpt>
      <trkpt lat="62.31832595653" lon="17.440626019788">
        <ele>19.4</ele>
        <time>2018-07-20T09:25:51Z</time>
      </trkpt>
      <trkpt lat="62.318205005713" lon="17.440470284086">
        <ele>20</ele>
        <time>2018-07-20T09:25:57Z</time>
      </trkpt>
      <trkpt lat="62.318161922747" lon="17.440419238315">
        <ele>20.4</ele>
        <time>2018-07-20T09:25:59Z</time>
      </trkpt>
      <trkpt lat="62.31808958695" lon="17.440314716022">
        <ele>21.6</ele>
        <time>2018-07-20T09:26:03Z</time>
      </trkpt>
      <trkpt lat="62.318008450158" lon="17.440102234857">
        <ele>22.4</ele>
        <time>2018-07-20T09:26:09Z</time>
      </trkpt>
      <trkpt lat="62.317981628078" lon="17.439984301524">
        <ele>22.6</ele>
        <time>2018-07-20T09:26:12Z</time>
      </trkpt>
      <trkpt lat="62.317934437981" lon="17.439739382406">
        <ele>23</ele>
        <time>2018-07-20T09:26:18Z</time>
      </trkpt>
      <trkpt lat="62.317883308391" lon="17.43953285239">
        <ele>23.8</ele>
        <time>2018-07-20T09:26:23Z</time>
      </trkpt>
      <trkpt lat="62.31783058624" lon="17.439284329055">
        <ele>25</ele>
        <time>2018-07-20T09:26:29Z</time>
      </trkpt>
      <trkpt lat="62.317760094461" lon="17.439057347203">
        <ele>26</ele>
        <time>2018-07-20T09:26:35Z</time>
      </trkpt>
      <trkpt lat="62.317639730377" lon="17.439109231164">
        <ele>26.4</ele>
        <time>2018-07-20T09:26:41Z</time>
      </trkpt>
      <trkpt lat="62.317528670202" lon="17.439256584966">
        <ele>26</ele>
        <time>2018-07-20T09:26:47Z</time>
      </trkpt>
      <trkpt lat="62.317417023294" lon="17.439420618749">
        <ele>26</ele>
        <time>2018-07-20T09:26:53Z</time>
      </trkpt>
      <trkpt lat="62.317305963119" lon="17.43958817293">
        <ele>25.2</ele>
        <time>2018-07-20T09:26:59Z</time>
      </trkpt>
      <trkpt lat="62.317288361129" lon="17.439613570087">
        <ele>25</ele>
        <time>2018-07-20T09:27:00Z</time>
      </trkpt>
      <trkpt lat="62.317177803868" lon="17.439854633531">
        <ele>24.4</ele>
        <time>2018-07-20T09:27:06Z</time>
      </trkpt>
      <trkpt lat="62.317100858026" lon="17.44002570811">
        <ele>23.8</ele>
        <time>2018-07-20T09:27:11Z</time>
      </trkpt>
      <trkpt lat="62.317012680438" lon="17.440244224243">
        <ele>23.4</ele>
        <time>2018-07-20T09:27:17Z</time>
      </trkpt>
      <trkpt lat="62.316907571412" lon="17.440436588848">
        <ele>23.4</ele>
        <time>2018-07-20T09:27:23Z</time>
      </trkpt>
      <trkpt lat="62.31678536331" lon="17.440661139949">
        <ele>23.6</ele>
        <time>2018-07-20T09:27:29Z</time>
      </trkpt>
      <trkpt lat="62.316669860728" lon="17.440834226184">
        <ele>23.2</ele>
        <time>2018-07-20T09:27:35Z</time>
      </trkpt>
      <trkpt lat="62.316616803301" lon="17.440904047411">
        <ele>22.6</ele>
        <time>2018-07-20T09:27:38Z</time>
      </trkpt>
      <trkpt lat="62.316501719814" lon="17.441091131419">
        <ele>22</ele>
        <time>2018-07-20T09:27:44Z</time>
      </trkpt>
      <trkpt lat="62.316456122278" lon="17.441201856318">
        <ele>21.6</ele>
        <time>2018-07-20T09:27:47Z</time>
      </trkpt>
      <trkpt lat="62.316364172835" lon="17.441444931418">
        <ele>21</ele>
        <time>2018-07-20T09:27:53Z</time>
      </trkpt>
      <trkpt lat="62.316303823155" lon="17.441616425092">
        <ele>20.6</ele>
        <time>2018-07-20T09:27:57Z</time>
      </trkpt>
      <trkpt lat="62.316235343032" lon="17.441840976193">
        <ele>19.8</ele>
        <time>2018-07-20T09:28:02Z</time>
      </trkpt>
      <trkpt lat="62.316199300862" lon="17.441969973634">
        <ele>19.4</ele>
        <time>2018-07-20T09:28:05Z</time>
      </trkpt>
      <trkpt lat="62.316114056939" lon="17.442231656552">
        <ele>18.2</ele>
        <time>2018-07-20T09:28:11Z</time>
      </trkpt>
      <trkpt lat="62.316011965397" lon="17.442485879579">
        <ele>17.6</ele>
        <time>2018-07-20T09:28:17Z</time>
      </trkpt>
      <trkpt lat="62.315906018181" lon="17.442675478157">
        <ele>17.2</ele>
        <time>2018-07-20T09:28:22Z</time>
      </trkpt>
      <trkpt lat="62.315791605246" lon="17.442910674271">
        <ele>17.2</ele>
        <time>2018-07-20T09:28:28Z</time>
      </trkpt>
      <trkpt lat="62.315688759333" lon="17.4431194674">
        <ele>17</ele>
        <time>2018-07-20T09:28:34Z</time>
      </trkpt>
      <trkpt lat="62.315580381366" lon="17.443345946338">
        <ele>16.8</ele>
        <time>2018-07-20T09:28:40Z</time>
      </trkpt>
      <trkpt lat="62.31546856682" lon="17.443565719756">
        <ele>16.4</ele>
        <time>2018-07-20T09:28:46Z</time>
      </trkpt>
      <trkpt lat="62.315447360613" lon="17.44360477941">
        <ele>16.4</ele>
        <time>2018-07-20T09:28:47Z</time>
      </trkpt>
      <trkpt lat="62.315426573501" lon="17.443640486304">
        <ele>16.2</ele>
        <time>2018-07-20T09:28:48Z</time>
      </trkpt>
      <trkpt lat="62.315311238557" lon="17.443847686872">
        <ele>15.4</ele>
        <time>2018-07-20T09:28:54Z</time>
      </trkpt>
      <trkpt lat="62.315161454004" lon="17.444002165289">
        <ele>15.2</ele>
        <time>2018-07-20T09:29:00Z</time>
      </trkpt>
      <trkpt lat="62.315077886461" lon="17.444076512742">
        <ele>15</ele>
        <time>2018-07-20T09:29:03Z</time>
      </trkpt>
      <trkpt lat="62.31493715436" lon="17.444200816319">
        <ele>15</ele>
        <time>2018-07-20T09:29:09Z</time>
      </trkpt>
      <trkpt lat="62.314785777246" lon="17.444315396892">
        <ele>15.2</ele>
        <time>2018-07-20T09:29:15Z</time>
      </trkpt>
      <trkpt lat="62.314612439554" lon="17.444443891419">
        <ele>15.2</ele>
        <time>2018-07-20T09:29:20Z</time>
      </trkpt>
      <trkpt lat="62.314438934224" lon="17.444567272987">
        <ele>14.8</ele>
        <time>2018-07-20T09:29:26Z</time>
      </trkpt>
      <trkpt lat="62.314343045288" lon="17.444645895209">
        <ele>14.8</ele>
        <time>2018-07-20T09:29:30Z</time>
      </trkpt>
      <trkpt lat="62.314195440029" lon="17.444768522406">
        <ele>14.4</ele>
        <time>2018-07-20T09:29:36Z</time>
      </trkpt>
      <trkpt lat="62.314056971041" lon="17.444887293929">
        <ele>14.6</ele>
        <time>2018-07-20T09:29:42Z</time>
      </trkpt>
      <trkpt lat="62.313913640551" lon="17.444975890612">
        <ele>14.8</ele>
        <time>2018-07-20T09:29:48Z</time>
      </trkpt>
      <trkpt lat="62.313766035292" lon="17.44501042404">
        <ele>15</ele>
        <time>2018-07-20T09:29:54Z</time>
      </trkpt>
      <trkpt lat="62.31361616692" lon="17.445033641903">
        <ele>15.8</ele>
        <time>2018-07-20T09:30:00Z</time>
      </trkpt>
      <trkpt lat="62.31346193996" lon="17.445103630768">
        <ele>15.2</ele>
        <time>2018-07-20T09:30:06Z</time>
      </trkpt>
      <trkpt lat="62.313305952801" lon="17.445198765333">
        <ele>15</ele>
        <time>2018-07-20T09:30:12Z</time>
      </trkpt>
      <trkpt lat="62.31315180966" lon="17.44533145081">
        <ele>15.4</ele>
        <time>2018-07-20T09:30:18Z</time>
      </trkpt>
      <trkpt lat="62.312984758393" lon="17.445473188739">
        <ele>15</ele>
        <time>2018-07-20T09:30:24Z</time>
      </trkpt>
      <trkpt lat="62.312817204212" lon="17.445591373529">
        <ele>15.2</ele>
        <time>2018-07-20T09:30:30Z</time>
      </trkpt>
      <trkpt lat="62.312664066899" lon="17.445654237779">
        <ele>14.4</ele>
        <time>2018-07-20T09:30:36Z</time>
      </trkpt>
      <trkpt lat="62.312529956499" lon="17.445765381773">
        <ele>14.2</ele>
        <time>2018-07-20T09:30:42Z</time>
      </trkpt>
      <trkpt lat="62.312467092249" lon="17.445820534675">
        <ele>14</ele>
        <time>2018-07-20T09:30:45Z</time>
      </trkpt>
      <trkpt lat="62.312325102863" lon="17.445984903734">
        <ele>13.8</ele>
        <time>2018-07-20T09:30:51Z</time>
      </trkpt>
      <trkpt lat="62.312161236718" lon="17.446166371869">
        <ele>12.8</ele>
        <time>2018-07-20T09:30:57Z</time>
      </trkpt>
      <trkpt lat="62.311997454392" lon="17.446245580824">
        <ele>12.4</ele>
        <time>2018-07-20T09:31:03Z</time>
      </trkpt>
      <trkpt lat="62.31181154385" lon="17.446352533868">
        <ele>12</ele>
        <time>2018-07-20T09:31:10Z</time>
      </trkpt>
      <trkpt lat="62.311682211133" lon="17.446456888523">
        <ele>12.6</ele>
        <time>2018-07-20T09:31:16Z</time>
      </trkpt>
      <trkpt lat="62.311536533711" lon="17.446607092171">
        <ele>12.6</ele>
        <time>2018-07-20T09:31:22Z</time>
      </trkpt>
      <trkpt lat="62.311395717791" lon="17.446748578643">
        <ele>13</ele>
        <time>2018-07-20T09:31:28Z</time>
      </trkpt>
      <trkpt lat="62.311304019805" lon="17.446842623561">
        <ele>14</ele>
        <time>2018-07-20T09:31:32Z</time>
      </trkpt>
      <trkpt lat="62.311170999052" lon="17.44701202176">
        <ele>14.6</ele>
        <time>2018-07-20T09:31:38Z</time>
      </trkpt>
      <trkpt lat="62.311112912485" lon="17.447105563764">
        <ele>15</ele>
        <time>2018-07-20T09:31:41Z</time>
      </trkpt>
      <trkpt lat="62.311009312201" lon="17.447234645024">
        <ele>16</ele>
        <time>2018-07-20T09:31:46Z</time>
      </trkpt>
      <trkpt lat="62.310920128785" lon="17.447348806502">
        <ele>17</ele>
        <time>2018-07-20T09:31:50Z</time>
      </trkpt>
      <trkpt lat="62.310823066383" lon="17.447480318513">
        <ele>18.2</ele>
        <time>2018-07-20T09:31:55Z</time>
      </trkpt>
      <trkpt lat="62.310689710354" lon="17.447640999536">
        <ele>18.6</ele>
        <time>2018-07-20T09:32:01Z</time>
      </trkpt>
      <trkpt lat="62.310572950487" lon="17.447766728036">
        <ele>19.4</ele>
        <time>2018-07-20T09:32:06Z</time>
      </trkpt>
      <trkpt lat="62.310453759869" lon="17.447914249476">
        <ele>19.8</ele>
        <time>2018-07-20T09:32:12Z</time>
      </trkpt>
      <trkpt lat="62.310338257287" lon="17.448117845827">
        <ele>20.4</ele>
        <time>2018-07-20T09:32:18Z</time>
      </trkpt>
      <trkpt lat="62.310319649469" lon="17.448148439762">
        <ele>20.4</ele>
        <time>2018-07-20T09:32:19Z</time>
      </trkpt>
      <trkpt lat="62.310183108318" lon="17.448291770252">
        <ele>21.2</ele>
        <time>2018-07-20T09:32:25Z</time>
      </trkpt>
      <trkpt lat="62.31016198593" lon="17.448316161581">
        <ele>21.4</ele>
        <time>2018-07-20T09:32:26Z</time>
      </trkpt>
      <trkpt lat="62.310028629901" lon="17.448466197591">
        <ele>22.4</ele>
        <time>2018-07-20T09:32:32Z</time>
      </trkpt>
      <trkpt lat="62.309990659894" lon="17.448524787072">
        <ele>22.6</ele>
        <time>2018-07-20T09:32:34Z</time>
      </trkpt>
      <trkpt lat="62.309867026869" lon="17.44872109117">
        <ele>23.4</ele>
        <time>2018-07-20T09:32:40Z</time>
      </trkpt>
      <trkpt lat="62.309846407395" lon="17.448751433648">
        <ele>23.6</ele>
        <time>2018-07-20T09:32:41Z</time>
      </trkpt>
      <trkpt lat="62.309723780198" lon="17.448923765512">
        <ele>23</ele>
        <time>2018-07-20T09:32:47Z</time>
      </trkpt>
      <trkpt lat="62.309683798535" lon="17.448996436585">
        <ele>22.6</ele>
        <time>2018-07-20T09:32:49Z</time>
      </trkpt>
      <trkpt lat="62.309571397256" lon="17.449229621043">
        <ele>22.2</ele>
        <time>2018-07-20T09:32:55Z</time>
      </trkpt>
      <trkpt lat="62.309448267145" lon="17.449416872689">
        <ele>22</ele>
        <time>2018-07-20T09:33:01Z</time>
      </trkpt>
      <trkpt lat="62.309286999389" lon="17.449652236441">
        <ele>22</ele>
        <time>2018-07-20T09:33:07Z</time>
      </trkpt>
      <trkpt lat="62.309148530401" lon="17.449916853024">
        <ele>21.8</ele>
        <time>2018-07-20T09:33:13Z</time>
      </trkpt>
      <trkpt lat="62.309066136324" lon="17.450184319453">
        <ele>22.2</ele>
        <time>2018-07-20T09:33:19Z</time>
      </trkpt>
      <trkpt lat="62.308974522157" lon="17.450473495003">
        <ele>21.8</ele>
        <time>2018-07-20T09:33:25Z</time>
      </trkpt>
      <trkpt lat="62.308957590719" lon="17.450520098367">
        <ele>21.6</ele>
        <time>2018-07-20T09:33:26Z</time>
      </trkpt>
      <trkpt lat="62.308889445872" lon="17.450760994173">
        <ele>20.6</ele>
        <time>2018-07-20T09:33:31Z</time>
      </trkpt>
      <trkpt lat="62.308823312681" lon="17.451077913812">
        <ele>19.4</ele>
        <time>2018-07-20T09:33:37Z</time>
      </trkpt>
      <trkpt lat="62.308765058476" lon="17.451379913669">
        <ele>18.4</ele>
        <time>2018-07-20T09:33:43Z</time>
      </trkpt>
      <trkpt lat="62.308756089843" lon="17.451434479838">
        <ele>18</ele>
        <time>2018-07-20T09:33:44Z</time>
      </trkpt>
      <trkpt lat="62.308728764849" lon="17.451599016535">
        <ele>17</ele>
        <time>2018-07-20T09:33:47Z</time>
      </trkpt>
      <trkpt lat="62.308666235875" lon="17.451927000282">
        <ele>16.2</ele>
        <time>2018-07-20T09:33:53Z</time>
      </trkpt>
      <trkpt lat="62.308654333577" lon="17.451982907555">
        <ele>16</ele>
        <time>2018-07-20T09:33:54Z</time>
      </trkpt>
      <trkpt lat="62.308573029147" lon="17.452342826341">
        <ele>15.4</ele>
        <time>2018-07-20T09:34:00Z</time>
      </trkpt>
      <trkpt lat="62.308486527939" lon="17.452584476518">
        <ele>15.4</ele>
        <time>2018-07-20T09:34:06Z</time>
      </trkpt>
      <trkpt lat="62.308406732251" lon="17.452838112812">
        <ele>16.2</ele>
        <time>2018-07-20T09:34:12Z</time>
      </trkpt>
      <trkpt lat="62.308354764471" lon="17.45315595446">
        <ele>14.8</ele>
        <time>2018-07-20T09:34:18Z</time>
      </trkpt>
      <trkpt lat="62.308309250754" lon="17.453416463912">
        <ele>13.6</ele>
        <time>2018-07-20T09:34:23Z</time>
      </trkpt>
      <trkpt lat="62.308254349309" lon="17.453442866897">
        <ele>13.2</ele>
        <time>2018-07-20T09:34:26Z</time>
      </trkpt>
      <trkpt lat="62.30813775708" lon="17.453281263865">
        <ele>14.2</ele>
        <time>2018-07-20T09:34:32Z</time>
      </trkpt>
      <trkpt lat="62.308117053787" lon="17.453277072915">
        <ele>14.4</ele>
        <time>2018-07-20T09:34:33Z</time>
      </trkpt>
      <trkpt lat="62.308072042984" lon="17.453283275521">
        <ele>14.8</ele>
        <time>2018-07-20T09:34:36Z</time>
      </trkpt>
      <trkpt lat="62.307989732726" lon="17.453295596914">
        <ele>15</ele>
        <time>2018-07-20T09:34:40Z</time>
      </trkpt>
      <trkpt lat="62.307873391954" lon="17.453151931148">
        <ele>14.8</ele>
        <time>2018-07-20T09:34:46Z</time>
      </trkpt>
      <trkpt lat="62.307767863833" lon="17.453097364979">
        <ele>13.8</ele>
        <time>2018-07-20T09:34:51Z</time>
      </trkpt>
      <trkpt lat="62.30775386606" lon="17.4530604008">
        <ele>13.6</ele>
        <time>2018-07-20T09:34:52Z</time>
      </trkpt>
      <trkpt lat="62.307649008491" lon="17.453020670594">
        <ele>13.8</ele>
        <time>2018-07-20T09:34:57Z</time>
      </trkpt>
      <trkpt lat="62.307580109273" lon="17.453047995588">
        <ele>14.2</ele>
        <time>2018-07-20T09:35:00Z</time>
      </trkpt>
      <trkpt lat="62.307454296954" lon="17.453019664766">
        <ele>14.8</ele>
        <time>2018-07-20T09:35:06Z</time>
      </trkpt>
      <trkpt lat="62.307415991671" lon="17.452942718924">
        <ele>15.4</ele>
        <time>2018-07-20T09:35:09Z</time>
      </trkpt>
      <trkpt lat="62.307398724957" lon="17.452875915181">
        <ele>16</ele>
        <time>2018-07-20T09:35:12Z</time>
      </trkpt>
      <trkpt lat="62.307364778262" lon="17.452839873011">
        <ele>16.6</ele>
        <time>2018-07-20T09:35:15Z</time>
      </trkpt>
      <trkpt lat="62.307347846824" lon="17.452836268794">
        <ele>17</ele>
        <time>2018-07-20T09:35:16Z</time>
      </trkpt>
      <trkpt lat="62.307244162721" lon="17.452805171945">
        <ele>18</ele>
        <time>2018-07-20T09:35:21Z</time>
      </trkpt>
      <trkpt lat="62.307123211904" lon="17.452792263819">
        <ele>19</ele>
        <time>2018-07-20T09:35:27Z</time>
      </trkpt>
      <trkpt lat="62.307004021286" lon="17.452903072537">
        <ele>19</ele>
        <time>2018-07-20T09:35:33Z</time>
      </trkpt>
      <trkpt lat="62.306967895297" lon="17.452936683956">
        <ele>18.8</ele>
        <time>2018-07-20T09:35:37Z</time>
      </trkpt>
      <trkpt lat="62.306858008588" lon="17.452961997294">
        <ele>19.4</ele>
        <time>2018-07-20T09:35:43Z</time>
      </trkpt>
      <trkpt lat="62.306795982528" lon="17.453062328637">
        <ele>19.4</ele>
        <time>2018-07-20T09:35:48Z</time>
      </trkpt>
      <trkpt lat="62.306765807688" lon="17.453112787675">
        <ele>19.4</ele>
        <time>2018-07-20T09:35:50Z</time>
      </trkpt>
      <trkpt lat="62.306735381391" lon="17.453167521482">
        <ele>19.4</ele>
        <time>2018-07-20T09:35:52Z</time>
      </trkpt>
      <trkpt lat="62.306688694208" lon="17.453226530058">
        <ele>20</ele>
        <time>2018-07-20T09:35:54Z</time>
      </trkpt>
      <trkpt lat="62.306650137468" lon="17.453291405964">
        <ele>19.8</ele>
        <time>2018-07-20T09:35:56Z</time>
      </trkpt>
      <trkpt lat="62.306606132493" lon="17.45336382558">
        <ele>20.4</ele>
        <time>2018-07-20T09:35:59Z</time>
      </trkpt>
      <trkpt lat="62.306531868859" lon="17.453527775544">
        <ele>20.6</ele>
        <time>2018-07-20T09:36:05Z</time>
      </trkpt>
      <trkpt lat="62.306479984898" lon="17.453614276752">
        <ele>20</ele>
        <time>2018-07-20T09:36:09Z</time>
      </trkpt>
      <trkpt lat="62.306332044363" lon="17.45377370049">
        <ele>20.6</ele>
        <time>2018-07-20T09:36:15Z</time>
      </trkpt>
      <trkpt lat="62.306238753816" lon="17.453974782271">
        <ele>20.2</ele>
        <time>2018-07-20T09:36:21Z</time>
      </trkpt>
      <trkpt lat="62.30611185185" lon="17.454132529629">
        <ele>19</ele>
        <time>2018-07-20T09:36:27Z</time>
      </trkpt>
      <trkpt lat="62.306092154385" lon="17.454160441356">
        <ele>18.8</ele>
        <time>2018-07-20T09:36:28Z</time>
      </trkpt>
      <trkpt lat="62.305953601578" lon="17.454364121526">
        <ele>17.8</ele>
        <time>2018-07-20T09:36:34Z</time>
      </trkpt>
      <trkpt lat="62.305911943535" lon="17.454414580564">
        <ele>17.6</ele>
        <time>2018-07-20T09:36:36Z</time>
      </trkpt>
      <trkpt lat="62.305773809823" lon="17.454554474475">
        <ele>17.8</ele>
        <time>2018-07-20T09:36:42Z</time>
      </trkpt>
      <trkpt lat="62.305619331406" lon="17.454769805486">
        <ele>17.6</ele>
        <time>2018-07-20T09:36:48Z</time>
      </trkpt>
      <trkpt lat="62.305518916244" lon="17.454996954976">
        <ele>17.2</ele>
        <time>2018-07-20T09:36:54Z</time>
      </trkpt>
      <trkpt lat="62.305436186891" lon="17.45521957824">
        <ele>16.4</ele>
        <time>2018-07-20T09:37:00Z</time>
      </trkpt>
      <trkpt lat="62.305371394804" lon="17.455462150426">
        <ele>15.4</ele>
        <time>2018-07-20T09:37:05Z</time>
      </trkpt>
      <trkpt lat="62.305363767275" lon="17.455702962413">
        <ele>14.2</ele>
        <time>2018-07-20T09:37:10Z</time>
      </trkpt>
      <trkpt lat="62.305390924631" lon="17.455871606241">
        <ele>13.2</ele>
        <time>2018-07-20T09:37:14Z</time>
      </trkpt>
      <trkpt lat="62.305419842186" lon="17.4560108296">
        <ele>12.2</ele>
        <time>2018-07-20T09:37:17Z</time>
      </trkpt>
      <trkpt lat="62.305366030388" lon="17.456363875228">
        <ele>10</ele>
        <time>2018-07-20T09:37:23Z</time>
      </trkpt>
      <trkpt lat="62.305286737614" lon="17.456649781837">
        <ele>10.2</ele>
        <time>2018-07-20T09:37:29Z</time>
      </trkpt>
      <trkpt lat="62.30527198547" lon="17.456974412824">
        <ele>10.2</ele>
        <time>2018-07-20T09:37:35Z</time>
      </trkpt>
      <trkpt lat="62.305312470047" lon="17.457276831776">
        <ele>10.2</ele>
        <time>2018-07-20T09:37:41Z</time>
      </trkpt>
      <trkpt lat="62.305374579926" lon="17.457550333173">
        <ele>10</ele>
        <time>2018-07-20T09:37:47Z</time>
      </trkpt>
      <trkpt lat="62.305432582674" lon="17.457782008889">
        <ele>10</ele>
        <time>2018-07-20T09:37:53Z</time>
      </trkpt>
      <trkpt lat="62.305442892411" lon="17.45798476705">
        <ele>10.8</ele>
        <time>2018-07-20T09:37:59Z</time>
      </trkpt>
      <trkpt lat="62.305450184664" lon="17.458064143643">
        <ele>11.2</ele>
        <time>2018-07-20T09:38:01Z</time>
      </trkpt>
      <trkpt lat="62.305444736429" lon="17.458203786097">
        <ele>12.6</ele>
        <time>2018-07-20T09:38:04Z</time>
      </trkpt>
      <trkpt lat="62.305417998168" lon="17.458343680008">
        <ele>13.6</ele>
        <time>2018-07-20T09:38:07Z</time>
      </trkpt>
      <trkpt lat="62.305373993193" lon="17.458600585243">
        <ele>14.6</ele>
        <time>2018-07-20T09:38:13Z</time>
      </trkpt>
      <trkpt lat="62.305303920509" lon="17.458824549611">
        <ele>15.8</ele>
        <time>2018-07-20T09:38:19Z</time>
      </trkpt>
      <trkpt lat="62.305247929417" lon="17.459042646649">
        <ele>16.2</ele>
        <time>2018-07-20T09:38:25Z</time>
      </trkpt>
      <trkpt lat="62.305128319704" lon="17.459288068681">
        <ele>17</ele>
        <time>2018-07-20T09:38:31Z</time>
      </trkpt>
      <trkpt lat="62.305048775473" lon="17.459345903791">
        <ele>18.2</ele>
        <time>2018-07-20T09:38:35Z</time>
      </trkpt>
      <trkpt lat="62.304915167987" lon="17.459279686781">
        <ele>19.4</ele>
        <time>2018-07-20T09:38:41Z</time>
      </trkpt>
      <trkpt lat="62.304847526054" lon="17.459233418693">
        <ele>20.4</ele>
        <time>2018-07-20T09:38:45Z</time>
      </trkpt>
      <trkpt lat="62.304784661804" lon="17.45924540481">
        <ele>21.6</ele>
        <time>2018-07-20T09:38:48Z</time>
      </trkpt>
      <trkpt lat="62.30467100324" lon="17.459300054798">
        <ele>22.6</ele>
        <time>2018-07-20T09:38:53Z</time>
      </trkpt>
      <trkpt lat="62.304559943065" lon="17.459454700853">
        <ele>23.4</ele>
        <time>2018-07-20T09:38:59Z</time>
      </trkpt>
      <trkpt lat="62.304542676351" lon="17.45948764172">
        <ele>23.6</ele>
        <time>2018-07-20T09:39:00Z</time>
      </trkpt>
      <trkpt lat="62.304467574527" lon="17.459695931935">
        <ele>24.8</ele>
        <time>2018-07-20T09:39:06Z</time>
      </trkpt>
      <trkpt lat="62.304421809353" lon="17.459816463657">
        <ele>25.8</ele>
        <time>2018-07-20T09:39:09Z</time>
      </trkpt>
      <trkpt lat="62.3043642257" lon="17.459964404192">
        <ele>27</ele>
        <time>2018-07-20T09:39:13Z</time>
      </trkpt>
      <trkpt lat="62.304298511604" lon="17.460097760221">
        <ele>28</ele>
        <time>2018-07-20T09:39:18Z</time>
      </trkpt>
      <trkpt lat="62.304242939607" lon="17.46023614539">
        <ele>29.4</ele>
        <time>2018-07-20T09:39:23Z</time>
      </trkpt>
      <trkpt lat="62.304184182488" lon="17.460492882987">
        <ele>30.2</ele>
        <time>2018-07-20T09:39:29Z</time>
      </trkpt>
      <trkpt lat="62.304148978508" lon="17.460762193434">
        <ele>29.6</ele>
        <time>2018-07-20T09:39:35Z</time>
      </trkpt>
      <trkpt lat="62.30408007929" lon="17.461042735627">
        <ele>29.2</ele>
        <time>2018-07-20T09:39:41Z</time>
      </trkpt>
      <trkpt lat="62.303990309141" lon="17.461297042473">
        <ele>28.4</ele>
        <time>2018-07-20T09:39:47Z</time>
      </trkpt>
      <trkpt lat="62.303978490662" lon="17.461359236171">
        <ele>28.2</ele>
        <time>2018-07-20T09:39:48Z</time>
      </trkpt>
      <trkpt lat="62.303927947805" lon="17.461702391157">
        <ele>27.2</ele>
        <time>2018-07-20T09:39:54Z</time>
      </trkpt>
      <trkpt lat="62.303885786848" lon="17.461991734345">
        <ele>26.6</ele>
        <time>2018-07-20T09:40:00Z</time>
      </trkpt>
      <trkpt lat="62.30383029867" lon="17.462271857443">
        <ele>26.6</ele>
        <time>2018-07-20T09:40:05Z</time>
      </trkpt>
      <trkpt lat="62.303674898244" lon="17.462292141641">
        <ele>27.4</ele>
        <time>2018-07-20T09:40:11Z</time>
      </trkpt>
      <trkpt lat="62.30364086773" lon="17.462229193572">
        <ele>27.6</ele>
        <time>2018-07-20T09:40:13Z</time>
      </trkpt>
      <trkpt lat="62.303607926863" lon="17.462159875259">
        <ele>28.2</ele>
        <time>2018-07-20T09:40:15Z</time>
      </trkpt>
      <trkpt lat="62.303561323499" lon="17.462007576136">
        <ele>29.4</ele>
        <time>2018-07-20T09:40:19Z</time>
      </trkpt>
      <trkpt lat="62.303530310469" lon="17.461842536525">
        <ele>30.6</ele>
        <time>2018-07-20T09:40:23Z</time>
      </trkpt>
      <trkpt lat="62.303506673511" lon="17.461726028115">
        <ele>31.8</ele>
        <time>2018-07-20T09:40:26Z</time>
      </trkpt>
      <trkpt lat="62.303483623286" lon="17.461654781965">
        <ele>32.4</ele>
        <time>2018-07-20T09:40:28Z</time>
      </trkpt>
      <trkpt lat="62.303442384338" lon="17.461623266021">
        <ele>33.2</ele>
        <time>2018-07-20T09:40:30Z</time>
      </trkpt>
      <trkpt lat="62.303366192867" lon="17.461624523306">
        <ele>34.6</ele>
        <time>2018-07-20T09:40:34Z</time>
      </trkpt>
      <trkpt lat="62.303322942263" lon="17.461673389783">
        <ele>35.4</ele>
        <time>2018-07-20T09:40:37Z</time>
      </trkpt>
      <trkpt lat="62.303287905921" lon="17.461730889617">
        <ele>35.8</ele>
        <time>2018-07-20T09:40:39Z</time>
      </trkpt>
      <trkpt lat="62.303198806324" lon="17.461822168508">
        <ele>37.2</ele>
        <time>2018-07-20T09:40:43Z</time>
      </trkpt>
      <trkpt lat="62.303131499667" lon="17.461818396653">
        <ele>38.2</ele>
        <time>2018-07-20T09:40:46Z</time>
      </trkpt>
      <trkpt lat="62.303095373678" lon="17.461780761922">
        <ele>39.2</ele>
        <time>2018-07-20T09:40:48Z</time>
      </trkpt>
      <trkpt lat="62.303043657355" lon="17.461708761401">
        <ele>40.2</ele>
        <time>2018-07-20T09:40:51Z</time>
      </trkpt>
      <trkpt lat="62.302964532219" lon="17.461531484216">
        <ele>41.8</ele>
        <time>2018-07-20T09:40:56Z</time>
      </trkpt>
      <trkpt lat="62.302944667116" lon="17.461439702411">
        <ele>42.4</ele>
        <time>2018-07-20T09:40:58Z</time>
      </trkpt>
      <trkpt lat="62.302912061525" lon="17.461133260147">
        <ele>42.2</ele>
        <time>2018-07-20T09:41:04Z</time>
      </trkpt>
      <trkpt lat="62.302877109002" lon="17.460846682986">
        <ele>42.6</ele>
        <time>2018-07-20T09:41:10Z</time>
      </trkpt>
      <trkpt lat="62.302870654939" lon="17.460798235604">
        <ele>42.8</ele>
        <time>2018-07-20T09:41:11Z</time>
      </trkpt>
      <trkpt lat="62.302814328571" lon="17.460547365337">
        <ele>43</ele>
        <time>2018-07-20T09:41:17Z</time>
      </trkpt>
      <trkpt lat="62.302726905354" lon="17.460356341836">
        <ele>42.6</ele>
        <time>2018-07-20T09:41:23Z</time>
      </trkpt>
      <trkpt lat="62.302612073324" lon="17.46018669218">
        <ele>42.8</ele>
        <time>2018-07-20T09:41:29Z</time>
      </trkpt>
      <trkpt lat="62.30251936951" lon="17.460047468821">
        <ele>43.8</ele>
        <time>2018-07-20T09:41:34Z</time>
      </trkpt>
      <trkpt lat="62.302385510567" lon="17.459886117246">
        <ele>43.8</ele>
        <time>2018-07-20T09:41:40Z</time>
      </trkpt>
      <trkpt lat="62.302293309667" lon="17.45972484949">
        <ele>44.8</ele>
        <time>2018-07-20T09:41:45Z</time>
      </trkpt>
      <trkpt lat="62.302175627791" lon="17.45954128588">
        <ele>44.8</ele>
        <time>2018-07-20T09:41:51Z</time>
      </trkpt>
      <trkpt lat="62.302048474368" lon="17.459331906018">
        <ele>43.6</ele>
        <time>2018-07-20T09:41:57Z</time>
      </trkpt>
      <trkpt lat="62.302004301755" lon="17.459253283796">
        <ele>42.8</ele>
        <time>2018-07-20T09:41:59Z</time>
      </trkpt>
      <trkpt lat="62.301933642338" lon="17.459138367947">
        <ele>41.4</ele>
        <time>2018-07-20T09:42:02Z</time>
      </trkpt>
      <trkpt lat="62.30184714113" lon="17.458990008317">
        <ele>40.2</ele>
        <time>2018-07-20T09:42:06Z</time>
      </trkpt>
      <trkpt lat="62.301760556103" lon="17.45879110583">
        <ele>40</ele>
        <time>2018-07-20T09:42:11Z</time>
      </trkpt>
      <trkpt lat="62.30172644177" lon="17.458574517534">
        <ele>40.2</ele>
        <time>2018-07-20T09:42:15Z</time>
      </trkpt>
      <trkpt lat="62.301753431488" lon="17.45848684286">
        <ele>40.4</ele>
        <time>2018-07-20T09:42:17Z</time>
      </trkpt>
      <trkpt lat="62.301905143878" lon="17.458422469868">
        <ele>39.8</ele>
        <time>2018-07-20T09:42:23Z</time>
      </trkpt>
      <trkpt lat="62.301981922082" lon="17.458392043571">
        <ele>39</ele>
        <time>2018-07-20T09:42:26Z</time>
      </trkpt>
      <trkpt lat="62.30213212573" lon="17.458300010309">
        <ele>37.8</ele>
        <time>2018-07-20T09:42:32Z</time>
      </trkpt>
      <trkpt lat="62.302286017414" lon="17.458219627888">
        <ele>36.6</ele>
        <time>2018-07-20T09:42:38Z</time>
      </trkpt>
      <trkpt lat="62.302384840015" lon="17.45816246333">
        <ele>35.6</ele>
        <time>2018-07-20T09:42:42Z</time>
      </trkpt>
      <trkpt lat="62.302553819119" lon="17.458090211352">
        <ele>34.4</ele>
        <time>2018-07-20T09:42:48Z</time>
      </trkpt>
      <trkpt lat="62.302722965861" lon="17.457968338526">
        <ele>33.8</ele>
        <time>2018-07-20T09:42:54Z</time>
      </trkpt>
      <trkpt lat="62.302800749893" lon="17.457915867832">
        <ele>33.4</ele>
        <time>2018-07-20T09:42:57Z</time>
      </trkpt>
      <trkpt lat="62.302937542501" lon="17.457831210642">
        <ele>33.2</ele>
        <time>2018-07-20T09:43:03Z</time>
      </trkpt>
      <trkpt lat="62.303074418928" lon="17.457733645326">
        <ele>32.8</ele>
        <time>2018-07-20T09:43:09Z</time>
      </trkpt>
      <trkpt lat="62.303173325348" lon="17.457681509908">
        <ele>32</ele>
        <time>2018-07-20T09:43:12Z</time>
      </trkpt>
      <trkpt lat="62.303246164059" lon="17.457653849638">
        <ele>31</ele>
        <time>2018-07-20T09:43:15Z</time>
      </trkpt>
      <trkpt lat="62.303397205897" lon="17.45761428707">
        <ele>29.6</ele>
        <time>2018-07-20T09:43:21Z</time>
      </trkpt>
      <trkpt lat="62.303482701277" lon="17.457593499958">
        <ele>28.4</ele>
        <time>2018-07-20T09:43:25Z</time>
      </trkpt>
      <trkpt lat="62.303561826413" lon="17.457572126113">
        <ele>27.4</ele>
        <time>2018-07-20T09:43:28Z</time>
      </trkpt>
      <trkpt lat="62.303638520798" lon="17.457547567146">
        <ele>26.4</ele>
        <time>2018-07-20T09:43:31Z</time>
      </trkpt>
      <trkpt lat="62.303797022527" lon="17.457466178897">
        <ele>25</ele>
        <time>2018-07-20T09:43:36Z</time>
      </trkpt>
      <trkpt lat="62.303851588696" lon="17.457468190553">
        <ele>23.8</ele>
        <time>2018-07-20T09:43:38Z</time>
      </trkpt>
      <trkpt lat="62.303912860385" lon="17.457442541939">
        <ele>22.8</ele>
        <time>2018-07-20T09:43:40Z</time>
      </trkpt>
      <trkpt lat="62.303985782915" lon="17.45738210844">
        <ele>21.6</ele>
        <time>2018-07-20T09:43:43Z</time>
      </trkpt>
      <trkpt lat="62.30409013757" lon="17.457279933079">
        <ele>20.4</ele>
        <time>2018-07-20T09:43:47Z</time>
      </trkpt>
      <trkpt lat="62.304192480569" lon="17.457207094368">
        <ele>19.4</ele>
        <time>2018-07-20T09:43:51Z</time>
      </trkpt>
      <trkpt lat="62.30429884688" lon="17.457191336396">
        <ele>18.2</ele>
        <time>2018-07-20T09:43:55Z</time>
      </trkpt>
      <trkpt lat="62.304452068012" lon="17.457183373591">
        <ele>17.2</ele>
        <time>2018-07-20T09:44:01Z</time>
      </trkpt>
      <trkpt lat="62.304479393006" lon="17.457179937012">
        <ele>17</ele>
        <time>2018-07-20T09:44:02Z</time>
      </trkpt>
      <trkpt lat="62.304618113451" lon="17.457142218462">
        <ele>16</ele>
        <time>2018-07-20T09:44:07Z</time>
      </trkpt>
      <trkpt lat="62.304736801155" lon="17.457083880438">
        <ele>15</ele>
        <time>2018-07-20T09:44:11Z</time>
      </trkpt>
      <trkpt lat="62.304894716151" lon="17.457017160514">
        <ele>14</ele>
        <time>2018-07-20T09:44:17Z</time>
      </trkpt>
      <trkpt lat="62.305041986134" lon="17.45696301344">
        <ele>12.8</ele>
        <time>2018-07-20T09:44:23Z</time>
      </trkpt>
      <trkpt lat="62.305181293312" lon="17.456933425333">
        <ele>11.6</ele>
        <time>2018-07-20T09:44:29Z</time>
      </trkpt>
      <trkpt lat="62.305304088147" lon="17.456780539477">
        <ele>10.6</ele>
        <time>2018-07-20T09:44:35Z</time>
      </trkpt>
      <trkpt lat="62.305366868578" lon="17.456500584017">
        <ele>10.8</ele>
        <time>2018-07-20T09:44:41Z</time>
      </trkpt>
      <trkpt lat="62.305394780305" lon="17.456411232963">
        <ele>10.4</ele>
        <time>2018-07-20T09:44:43Z</time>
      </trkpt>
      <trkpt lat="62.305483712264" lon="17.456171594442">
        <ele>10.4</ele>
        <time>2018-07-20T09:44:49Z</time>
      </trkpt>
      <trkpt lat="62.305482287341" lon="17.455883592358">
        <ele>11.2</ele>
        <time>2018-07-20T09:44:55Z</time>
      </trkpt>
      <trkpt lat="62.3054706365" lon="17.455847466369">
        <ele>11.4</ele>
        <time>2018-07-20T09:44:56Z</time>
      </trkpt>
      <trkpt lat="62.30542537424" lon="17.455704806431">
        <ele>12.8</ele>
        <time>2018-07-20T09:45:00Z</time>
      </trkpt>
      <trkpt lat="62.305394947943" lon="17.455532390748">
        <ele>13.8</ele>
        <time>2018-07-20T09:45:04Z</time>
      </trkpt>
      <trkpt lat="62.305419423091" lon="17.455322256515">
        <ele>15</ele>
        <time>2018-07-20T09:45:08Z</time>
      </trkpt>
      <trkpt lat="62.305490082508" lon="17.455073900818">
        <ele>15.8</ele>
        <time>2018-07-20T09:45:14Z</time>
      </trkpt>
      <trkpt lat="62.305523023375" lon="17.454950351612">
        <ele>16.2</ele>
        <time>2018-07-20T09:45:17Z</time>
      </trkpt>
      <trkpt lat="62.305595359172" lon="17.454692189092">
        <ele>17.2</ele>
        <time>2018-07-20T09:45:23Z</time>
      </trkpt>
      <trkpt lat="62.305680016362" lon="17.454462105937">
        <ele>17.6</ele>
        <time>2018-07-20T09:45:29Z</time>
      </trkpt>
      <trkpt lat="62.305783532827" lon="17.454290528444">
        <ele>17.8</ele>
        <time>2018-07-20T09:45:35Z</time>
      </trkpt>
      <trkpt lat="62.305869866397" lon="17.454221210131">
        <ele>18.2</ele>
        <time>2018-07-20T09:45:39Z</time>
      </trkpt>
      <trkpt lat="62.305999869666" lon="17.45404275948">
        <ele>18.4</ele>
        <time>2018-07-20T09:45:45Z</time>
      </trkpt>
      <trkpt lat="62.306101206837" lon="17.453865985209">
        <ele>19</ele>
        <time>2018-07-20T09:45:51Z</time>
      </trkpt>
      <trkpt lat="62.306199358886" lon="17.453738915605">
        <ele>19.2</ele>
        <time>2018-07-20T09:45:57Z</time>
      </trkpt>
      <trkpt lat="62.306220397455" lon="17.453715949199">
        <ele>19.4</ele>
        <time>2018-07-20T09:45:59Z</time>
      </trkpt>
      <trkpt lat="62.306252332494" lon="17.453598686418">
        <ele>20.4</ele>
        <time>2018-07-20T09:46:03Z</time>
      </trkpt>
      <trkpt lat="62.306265156801" lon="17.453584521007">
        <ele>20.4</ele>
        <time>2018-07-20T09:46:04Z</time>
      </trkpt>
      <trkpt lat="62.306372864216" lon="17.453498941808">
        <ele>21</ele>
        <time>2018-07-20T09:46:10Z</time>
      </trkpt>
      <trkpt lat="62.306484762581" lon="17.453418140292">
        <ele>21</ele>
        <time>2018-07-20T09:46:16Z</time>
      </trkpt>
      <trkpt lat="62.306551985419" lon="17.453320407338">
        <ele>20.2</ele>
        <time>2018-07-20T09:46:22Z</time>
      </trkpt>
      <trkpt lat="62.306563887717" lon="17.453280677132">
        <ele>20.2</ele>
        <time>2018-07-20T09:46:24Z</time>
      </trkpt>
      <trkpt lat="62.306676372815" lon="17.453132904235">
        <ele>20.2</ele>
        <time>2018-07-20T09:46:30Z</time>
      </trkpt>
      <trkpt lat="62.306776368882" lon="17.452966020606">
        <ele>19.6</ele>
        <time>2018-07-20T09:46:36Z</time>
      </trkpt>
      <trkpt lat="62.306808303921" lon="17.45292461402">
        <ele>19.6</ele>
        <time>2018-07-20T09:46:39Z</time>
      </trkpt>
      <trkpt lat="62.306898409346" lon="17.452898797768">
        <ele>19.8</ele>
        <time>2018-07-20T09:46:44Z</time>
      </trkpt>
      <trkpt lat="62.306955154809" lon="17.452827048704">
        <ele>19.8</ele>
        <time>2018-07-20T09:46:47Z</time>
      </trkpt>
      <trkpt lat="62.307089935761" lon="17.452668630794">
        <ele>20</ele>
        <time>2018-07-20T09:46:53Z</time>
      </trkpt>
      <trkpt lat="62.307197894633" lon="17.452718000185">
        <ele>19.2</ele>
        <time>2018-07-20T09:46:58Z</time>
      </trkpt>
      <trkpt lat="62.307310044455" lon="17.452828892722">
        <ele>18.2</ele>
        <time>2018-07-20T09:47:03Z</time>
      </trkpt>
      <trkpt lat="62.307350612851" lon="17.452946239322">
        <ele>17</ele>
        <time>2018-07-20T09:47:06Z</time>
      </trkpt>
      <trkpt lat="62.307380703872" lon="17.452972055574">
        <ele>16.8</ele>
        <time>2018-07-20T09:47:07Z</time>
      </trkpt>
      <trkpt lat="62.307559657437" lon="17.452965433873">
        <ele>16.2</ele>
        <time>2018-07-20T09:47:13Z</time>
      </trkpt>
      <trkpt lat="62.307627215551" lon="17.452924530201">
        <ele>15.8</ele>
        <time>2018-07-20T09:47:15Z</time>
      </trkpt>
      <trkpt lat="62.307703490841" lon="17.452927296228">
        <ele>15.4</ele>
        <time>2018-07-20T09:47:18Z</time>
      </trkpt>
      <trkpt lat="62.307832320644" lon="17.453056461307">
        <ele>14.6</ele>
        <time>2018-07-20T09:47:24Z</time>
      </trkpt>
      <trkpt lat="62.307952349452" lon="17.453193086277">
        <ele>14.8</ele>
        <time>2018-07-20T09:47:30Z</time>
      </trkpt>
      <trkpt lat="62.307969616166" lon="17.453203982747">
        <ele>15</ele>
        <time>2018-07-20T09:47:31Z</time>
      </trkpt>
      <trkpt lat="62.308099787073" lon="17.453134664434">
        <ele>15.2</ele>
        <time>2018-07-20T09:47:37Z</time>
      </trkpt>
      <trkpt lat="62.308120825642" lon="17.453139777393">
        <ele>15</ele>
        <time>2018-07-20T09:47:38Z</time>
      </trkpt>
      <trkpt lat="62.308240938269" lon="17.453268607196">
        <ele>14.4</ele>
        <time>2018-07-20T09:47:44Z</time>
      </trkpt>
      <trkpt lat="62.308312603514" lon="17.453220075995">
        <ele>14.2</ele>
        <time>2018-07-20T09:47:47Z</time>
      </trkpt>
      <trkpt lat="62.308348478046" lon="17.453119325557">
        <ele>14.2</ele>
        <time>2018-07-20T09:47:51Z</time>
      </trkpt>
      <trkpt lat="62.3083540101" lon="17.453082864292">
        <ele>14.2</ele>
        <time>2018-07-20T09:47:53Z</time>
      </trkpt>
      <trkpt lat="62.308446546276" lon="17.452430249558">
        <ele>16</ele>
        <time>2018-07-20T09:48:23Z</time>
      </trkpt>
      <trkpt lat="62.308547380533" lon="17.452191533046">
        <ele>16.2</ele>
        <time>2018-07-20T09:48:29Z</time>
      </trkpt>
      <trkpt lat="62.308645951677" lon="17.451994893672">
        <ele>16</ele>
        <time>2018-07-20T09:48:35Z</time>
      </trkpt>
      <trkpt lat="62.308709067384" lon="17.451731282917">
        <ele>16.2</ele>
        <time>2018-07-20T09:48:41Z</time>
      </trkpt>
      <trkpt lat="62.308753407635" lon="17.45148376541">
        <ele>17.2</ele>
        <time>2018-07-20T09:48:46Z</time>
      </trkpt>
      <trkpt lat="62.308815685152" lon="17.451188806349">
        <ele>18</ele>
        <time>2018-07-20T09:48:52Z</time>
      </trkpt>
      <trkpt lat="62.308848374562" lon="17.451047152239">
        <ele>18.2</ele>
        <time>2018-07-20T09:48:55Z</time>
      </trkpt>
      <trkpt lat="62.308877627393" lon="17.450919495902">
        <ele>19.2</ele>
        <time>2018-07-20T09:48:58Z</time>
      </trkpt>
      <trkpt lat="62.308901683446" lon="17.450778344706">
        <ele>20.6</ele>
        <time>2018-07-20T09:49:01Z</time>
      </trkpt>
      <trkpt lat="62.308915345943" lon="17.450667703626">
        <ele>21.6</ele>
        <time>2018-07-20T09:49:03Z</time>
      </trkpt>
      <trkpt lat="62.30897929984" lon="17.450416078988">
        <ele>21.6</ele>
        <time>2018-07-20T09:49:09Z</time>
      </trkpt>
      <trkpt lat="62.30903797314" lon="17.450138051365">
        <ele>22.6</ele>
        <time>2018-07-20T09:49:15Z</time>
      </trkpt>
      <trkpt lat="62.309056664777" lon="17.450045263732">
        <ele>22.8</ele>
        <time>2018-07-20T09:49:17Z</time>
      </trkpt>
      <trkpt lat="62.309128330022" lon="17.449741922771">
        <ele>23.2</ele>
        <time>2018-07-20T09:49:23Z</time>
      </trkpt>
      <trkpt lat="62.309207119882" lon="17.449484598441">
        <ele>23</ele>
        <time>2018-07-20T09:49:29Z</time>
      </trkpt>
      <trkpt lat="62.309316755134" lon="17.44927345838">
        <ele>23.2</ele>
        <time>2018-07-20T09:49:35Z</time>
      </trkpt>
      <trkpt lat="62.309436281028" lon="17.449049996926">
        <ele>23</ele>
        <time>2018-07-20T09:49:41Z</time>
      </trkpt>
      <trkpt lat="62.309550777782" lon="17.448845310928">
        <ele>23.2</ele>
        <time>2018-07-20T09:49:47Z</time>
      </trkpt>
      <trkpt lat="62.309663514337" lon="17.448671973236">
        <ele>24</ele>
        <time>2018-07-20T09:49:53Z</time>
      </trkpt>
      <trkpt lat="62.309781280032" lon="17.448472316378">
        <ele>24.6</ele>
        <time>2018-07-20T09:49:59Z</time>
      </trkpt>
      <trkpt lat="62.309914887518" lon="17.448277940117">
        <ele>24.2</ele>
        <time>2018-07-20T09:50:05Z</time>
      </trkpt>
      <trkpt lat="62.31003625743" lon="17.44810418333">
        <ele>23.2</ele>
        <time>2018-07-20T09:50:11Z</time>
      </trkpt>
      <trkpt lat="62.310082609337" lon="17.448042576365">
        <ele>22.8</ele>
        <time>2018-07-20T09:50:13Z</time>
      </trkpt>
      <trkpt lat="62.310222922343" lon="17.447900167884">
        <ele>21.6</ele>
        <time>2018-07-20T09:50:19Z</time>
      </trkpt>
      <trkpt lat="62.310382094624" lon="17.447725908183">
        <ele>20.6</ele>
        <time>2018-07-20T09:50:25Z</time>
      </trkpt>
      <trkpt lat="62.310553923574" lon="17.44750823024">
        <ele>20.2</ele>
        <time>2018-07-20T09:50:32Z</time>
      </trkpt>
      <trkpt lat="62.310703037575" lon="17.447340089326">
        <ele>19.6</ele>
        <time>2018-07-20T09:50:38Z</time>
      </trkpt>
      <trkpt lat="62.310756095002" lon="17.447288708279">
        <ele>19.4</ele>
        <time>2018-07-20T09:50:40Z</time>
      </trkpt>
      <trkpt lat="62.310878219285" lon="17.447118388071">
        <ele>18.4</ele>
        <time>2018-07-20T09:50:45Z</time>
      </trkpt>
      <trkpt lat="62.310992967496" lon="17.446971201907">
        <ele>17.2</ele>
        <time>2018-07-20T09:50:50Z</time>
      </trkpt>
      <trkpt lat="62.311084246387" lon="17.446848323253">
        <ele>16.2</ele>
        <time>2018-07-20T09:50:54Z</time>
      </trkpt>
      <trkpt lat="62.311235120587" lon="17.446674315009">
        <ele>15.6</ele>
        <time>2018-07-20T09:51:00Z</time>
      </trkpt>
      <trkpt lat="62.311314748637" lon="17.446617569546">
        <ele>15.2</ele>
        <time>2018-07-20T09:51:03Z</time>
      </trkpt>
      <trkpt lat="62.31145698948" lon="17.446495277625">
        <ele>14.2</ele>
        <time>2018-07-20T09:51:09Z</time>
      </trkpt>
      <trkpt lat="62.311589088224" lon="17.446391509703">
        <ele>14.2</ele>
        <time>2018-07-20T09:51:14Z</time>
      </trkpt>
      <trkpt lat="62.311737364035" lon="17.446211215034">
        <ele>13.6</ele>
        <time>2018-07-20T09:51:20Z</time>
      </trkpt>
      <trkpt lat="62.311879856335" lon="17.446088252561">
        <ele>13.6</ele>
        <time>2018-07-20T09:51:26Z</time>
      </trkpt>
      <trkpt lat="62.312050511819" lon="17.445980964241">
        <ele>13.4</ele>
        <time>2018-07-20T09:51:32Z</time>
      </trkpt>
      <trkpt lat="62.312204152046" lon="17.445878872699">
        <ele>13.6</ele>
        <time>2018-07-20T09:51:38Z</time>
      </trkpt>
      <trkpt lat="62.312330299641" lon="17.445769153628">
        <ele>14.4</ele>
        <time>2018-07-20T09:51:44Z</time>
      </trkpt>
      <trkpt lat="62.312462566023" lon="17.445639317997">
        <ele>15</ele>
        <time>2018-07-20T09:51:50Z</time>
      </trkpt>
      <trkpt lat="62.312536326743" lon="17.445552565332">
        <ele>15</ele>
        <time>2018-07-20T09:51:54Z</time>
      </trkpt>
      <trkpt lat="62.312622325037" lon="17.445492467109">
        <ele>15.2</ele>
        <time>2018-07-20T09:51:58Z</time>
      </trkpt>
      <trkpt lat="62.312751825392" lon="17.445429435221">
        <ele>15.8</ele>
        <time>2018-07-20T09:52:04Z</time>
      </trkpt>
      <trkpt lat="62.312858359341" lon="17.445339748891">
        <ele>16.2</ele>
        <time>2018-07-20T09:52:09Z</time>
      </trkpt>
      <trkpt lat="62.313025326789" lon="17.445217959884">
        <ele>16.2</ele>
        <time>2018-07-20T09:52:15Z</time>
      </trkpt>
      <trkpt lat="62.313158431361" lon="17.445104133682">
        <ele>16.4</ele>
        <time>2018-07-20T09:52:21Z</time>
      </trkpt>
      <trkpt lat="62.313329254483" lon="17.444984356331">
        <ele>16.6</ele>
        <time>2018-07-20T09:52:27Z</time>
      </trkpt>
      <trkpt lat="62.31351642231" lon="17.444875978364">
        <ele>16.4</ele>
        <time>2018-07-20T09:52:33Z</time>
      </trkpt>
      <trkpt lat="62.313696130246" lon="17.4448461388">
        <ele>16.4</ele>
        <time>2018-07-20T09:52:39Z</time>
      </trkpt>
      <trkpt lat="62.313879945313" lon="17.444761230153">
        <ele>16.2</ele>
        <time>2018-07-20T09:52:45Z</time>
      </trkpt>
      <trkpt lat="62.314055881394" lon="17.444629466685">
        <ele>15.8</ele>
        <time>2018-07-20T09:52:51Z</time>
      </trkpt>
      <trkpt lat="62.314211700915" lon="17.444503151452">
        <ele>15.8</ele>
        <time>2018-07-20T09:52:57Z</time>
      </trkpt>
      <trkpt lat="62.314365424961" lon="17.444394605847">
        <ele>16</ele>
        <time>2018-07-20T09:53:03Z</time>
      </trkpt>
      <trkpt lat="62.314509509822" lon="17.444262674741">
        <ele>16.2</ele>
        <time>2018-07-20T09:53:09Z</time>
      </trkpt>
      <trkpt lat="62.314661976583" lon="17.444172988411">
        <ele>16.2</ele>
        <time>2018-07-20T09:53:15Z</time>
      </trkpt>
      <trkpt lat="62.314817544647" lon="17.444069723403">
        <ele>16.6</ele>
        <time>2018-07-20T09:53:21Z</time>
      </trkpt>
      <trkpt lat="62.314974453815" lon="17.443951957708">
        <ele>16.6</ele>
        <time>2018-07-20T09:53:27Z</time>
      </trkpt>
      <trkpt lat="62.315115102097" lon="17.443788007744">
        <ele>16.4</ele>
        <time>2018-07-20T09:53:33Z</time>
      </trkpt>
      <trkpt lat="62.315253319628" lon="17.44359807389">
        <ele>16.8</ele>
        <time>2018-07-20T09:53:39Z</time>
      </trkpt>
      <trkpt lat="62.315362619604" lon="17.443416689574">
        <ele>17.4</ele>
        <time>2018-07-20T09:53:45Z</time>
      </trkpt>
      <trkpt lat="62.315475020883" lon="17.443187863704">
        <ele>18</ele>
        <time>2018-07-20T09:53:51Z</time>
      </trkpt>
      <trkpt lat="62.315554229838" lon="17.443040258445">
        <ele>18.4</ele>
        <time>2018-07-20T09:53:55Z</time>
      </trkpt>
      <trkpt lat="62.315670654429" lon="17.442783437029">
        <ele>18.6</ele>
        <time>2018-07-20T09:54:01Z</time>
      </trkpt>
      <trkpt lat="62.315789509771" lon="17.442531980029">
        <ele>18.6</ele>
        <time>2018-07-20T09:54:07Z</time>
      </trkpt>
      <trkpt lat="62.315902833059" lon="17.44231648138">
        <ele>19.2</ele>
        <time>2018-07-20T09:54:13Z</time>
      </trkpt>
      <trkpt lat="62.315919177764" lon="17.44227121912">
        <ele>19.6</ele>
        <time>2018-07-20T09:54:14Z</time>
      </trkpt>
      <trkpt lat="62.316014731424" lon="17.44201557117">
        <ele>20</ele>
        <time>2018-07-20T09:54:20Z</time>
      </trkpt>
      <trkpt lat="62.316100226804" lon="17.441766796378">
        <ele>20.6</ele>
        <time>2018-07-20T09:54:26Z</time>
      </trkpt>
      <trkpt lat="62.316116236233" lon="17.441722456127">
        <ele>20.8</ele>
        <time>2018-07-20T09:54:27Z</time>
      </trkpt>
      <trkpt lat="62.316210197332" lon="17.441473010783">
        <ele>21.8</ele>
        <time>2018-07-20T09:54:33Z</time>
      </trkpt>
      <trkpt lat="62.316227464046" lon="17.441432526206">
        <ele>21.8</ele>
        <time>2018-07-20T09:54:34Z</time>
      </trkpt>
      <trkpt lat="62.316293094323" lon="17.441274695029">
        <ele>22.8</ele>
        <time>2018-07-20T09:54:38Z</time>
      </trkpt>
      <trkpt lat="62.316394850589" lon="17.441034469775">
        <ele>23.6</ele>
        <time>2018-07-20T09:54:44Z</time>
      </trkpt>
      <trkpt lat="62.316485626566" lon="17.44085886897">
        <ele>24</ele>
        <time>2018-07-20T09:54:48Z</time>
      </trkpt>
      <trkpt lat="62.316632309816" lon="17.440558126398">
        <ele>24.6</ele>
        <time>2018-07-20T09:54:54Z</time>
      </trkpt>
      <trkpt lat="62.316774047745" lon="17.44029644348">
        <ele>25.2</ele>
        <time>2018-07-20T09:55:00Z</time>
      </trkpt>
      <trkpt lat="62.316851245044" lon="17.440175911758">
        <ele>26.4</ele>
        <time>2018-07-20T09:55:03Z</time>
      </trkpt>
      <trkpt lat="62.317006813108" lon="17.439941805291">
        <ele>26</ele>
        <time>2018-07-20T09:55:09Z</time>
      </trkpt>
      <trkpt lat="62.317167661769" lon="17.439649444619">
        <ele>27.4</ele>
        <time>2018-07-20T09:55:15Z</time>
      </trkpt>
      <trkpt lat="62.317326247317" lon="17.439378122516">
        <ele>27.4</ele>
        <time>2018-07-20T09:55:21Z</time>
      </trkpt>
      <trkpt lat="62.31750453033" lon="17.439140495651">
        <ele>27.6</ele>
        <time>2018-07-20T09:55:27Z</time>
      </trkpt>
      <trkpt lat="62.317588852244" lon="17.439015940617">
        <ele>27.8</ele>
        <time>2018-07-20T09:55:30Z</time>
      </trkpt>
      <trkpt lat="62.317839303416" lon="17.439096658314">
        <ele>28.4</ele>
        <time>2018-07-20T09:56:13Z</time>
      </trkpt>
      <trkpt lat="62.317846008936" lon="17.439117529245">
        <ele>28.2</ele>
        <time>2018-07-20T09:56:14Z</time>
      </trkpt>
      <trkpt lat="62.317893701947" lon="17.439358592689">
        <ele>27.6</ele>
        <time>2018-07-20T09:56:20Z</time>
      </trkpt>
      <trkpt lat="62.317913483231" lon="17.439619018322">
        <ele>26.6</ele>
        <time>2018-07-20T09:56:26Z</time>
      </trkpt>
      <trkpt lat="62.317948687211" lon="17.439843988518">
        <ele>26.2</ele>
        <time>2018-07-20T09:56:30Z</time>
      </trkpt>
      <trkpt lat="62.31798648958" lon="17.440059403348">
        <ele>25.2</ele>
        <time>2018-07-20T09:56:34Z</time>
      </trkpt>
      <trkpt lat="62.31804097193" lon="17.440232238126">
        <ele>24.4</ele>
        <time>2018-07-20T09:56:38Z</time>
      </trkpt>
    </trkseg>
  </trk>
</gpx>